createdAt,value
2022-08-08T00:00:52.784Z,16.17
2022-08-08T00:03:32.916Z,17.65
2022-08-08T00:06:48.693Z,14.50
2022-08-08T00:10:17.260Z,22.80
2022-08-08T00:14:15.421Z,15.43
2022-08-08T00:17:48.122Z,14.70
2022-08-08T00:20:59.366Z,17.23
2022-08-08T00:24:13.168Z,17.60
2022-08-08T00:27:18.699Z,20.75
2022-08-08T00:30:23.910Z,17.90
2022-08-08T00:34:18.221Z,19.98
2022-08-08T00:37:08.115Z,26.75
2022-08-08T00:41:11.218Z,14.57
2022-08-08T00:44:13.644Z,23.90
2022-08-08T00:48:05.000Z,15.50
2022-08-08T00:51:11.362Z,17.85
2022-08-08T00:54:34.312Z,20.05
2022-08-08T00:58:12.698Z,12.57
2022-08-08T01:01:29.352Z,15.07
2022-08-08T01:08:28.633Z,18.23
2022-08-08T01:12:05.921Z,16.10
2022-08-08T01:15:43.681Z,17.05
2022-08-08T01:18:55.465Z,19.70
2022-08-08T01:22:41.102Z,21.33
2022-08-08T01:26:15.843Z,13.32
2022-08-08T01:29:58.922Z,13.10
2022-08-08T01:33:27.576Z,18.52
2022-08-08T01:37:01.951Z,16.55
2022-08-08T01:40:26.606Z,18.55
2022-08-08T01:43:40.319Z,15.43
2022-08-08T01:46:47.372Z,15.77
2022-08-08T01:50:09.496Z,18.02
2022-08-08T01:55:15.915Z,18.17
2022-08-08T01:58:10.650Z,18.45
2022-08-08T02:01:17.298Z,21.10
2022-08-08T02:04:37.435Z,18.05
2022-08-08T02:08:16.947Z,18.30
2022-08-08T02:11:53.193Z,18.80
2022-08-08T02:15:12.514Z,17.90
2022-08-08T02:18:17.669Z,16.52
2022-08-08T02:22:03.671Z,16.10
2022-08-08T02:25:21.161Z,17.30
2022-08-08T02:28:58.817Z,25.13
2022-08-08T02:32:22.338Z,18.42
2022-08-08T02:36:03.569Z,19.85
2022-08-08T02:39:58.459Z,22.55
2022-08-08T02:44:38.862Z,21.90
2022-08-08T02:47:05.565Z,22.23
2022-08-08T02:50:41.558Z,25.15
2022-08-08T02:54:07.866Z,20.05
2022-08-08T02:57:44.991Z,23.35
2022-08-08T03:01:47.223Z,24.70
2022-08-08T03:05:45.154Z,24.75
2022-08-08T03:09:28.806Z,24.83
2022-08-08T03:13:07.343Z,26.55
2022-08-08T03:16:43.213Z,32.60
2022-08-08T03:20:10.255Z,25.70
2022-08-08T03:23:13.086Z,28.98
2022-08-08T03:26:42.735Z,23.88
2022-08-08T03:29:56.019Z,24.98
2022-08-08T03:33:55.282Z,28.80
2022-08-08T03:36:42.148Z,24.80
2022-08-08T03:40:00.666Z,23.98
2022-08-08T03:43:16.555Z,20.60
2022-08-08T03:46:22.126Z,22.70
2022-08-08T03:49:54.869Z,28.70
2022-08-08T03:52:50.107Z,25.17
2022-08-08T03:55:58.005Z,23.60
2022-08-08T04:02:33.088Z,21.23
2022-08-08T04:05:39.866Z,28.30
2022-08-08T04:08:50.407Z,27.40
2022-08-08T04:11:58.809Z,27.40
2022-08-08T04:15:05.071Z,25.40
2022-08-08T04:18:16.428Z,25.38
2022-08-08T04:21:20.034Z,26.75
2022-08-08T04:24:29.608Z,27.17
2022-08-08T04:28:02.451Z,28.67
2022-08-08T04:30:57.628Z,29.38
2022-08-08T04:33:59.912Z,27.20
2022-08-08T04:37:03.899Z,23.87
2022-08-08T04:40:10.548Z,27.88
2022-08-08T04:43:14.309Z,25.30
2022-08-08T04:46:16.795Z,29.55
2022-08-08T04:49:20.914Z,27.05
2022-08-08T04:52:34.346Z,44.08
2022-08-08T04:55:55.635Z,28.13
2022-08-08T04:58:58.625Z,27.65
2022-08-08T05:02:04.343Z,26.42
2022-08-08T05:05:07.020Z,27.20
2022-08-08T05:08:18.282Z,28.45
2022-08-08T05:11:24.276Z,27.50
2022-08-08T05:14:29.058Z,40.25
2022-08-08T05:17:53.370Z,31.80
2022-08-08T05:20:54.420Z,30.13
2022-08-08T05:24:04.181Z,31.10
2022-08-08T05:27:11.140Z,38.33
2022-08-08T05:30:14.231Z,34.80
2022-08-08T05:33:17.851Z,30.00
2022-08-08T05:36:27.989Z,30.23
2022-08-08T05:39:34.962Z,31.75
2022-08-08T05:42:43.872Z,34.67
2022-08-08T05:45:53.324Z,35.58
2022-08-08T05:48:58.353Z,31.13
2022-08-08T05:52:03.505Z,30.77
2022-08-08T05:55:14.289Z,38.20
2022-08-08T05:58:17.313Z,43.38
2022-08-08T06:01:56.841Z,32.30
2022-08-08T06:08:02.383Z,25.52
2022-08-08T06:11:06.045Z,32.97
2022-08-08T06:14:12.917Z,27.05
2022-08-08T06:17:21.951Z,26.80
2022-08-08T06:20:49.490Z,28.90
2022-08-08T06:24:03.356Z,35.45
2022-08-08T06:30:20.384Z,34.65
2022-08-08T06:34:26.504Z,33.05
2022-08-08T06:37:10.128Z,31.80
2022-08-08T06:40:31.985Z,25.05
2022-08-08T06:43:39.417Z,32.75
2022-08-08T06:46:41.936Z,30.08
2022-08-08T06:49:56.667Z,30.20
2022-08-08T06:53:09.819Z,28.08
2022-08-08T06:56:16.876Z,28.70
2022-08-08T06:59:19.332Z,28.45
2022-08-08T07:02:28.585Z,28.88
2022-08-08T07:05:40.357Z,27.70
2022-08-08T07:08:47.956Z,24.83
2022-08-08T07:11:57.347Z,25.95
2022-08-08T07:15:06.119Z,26.95
2022-08-08T07:18:36.161Z,21.60
2022-08-08T07:22:05.602Z,28.63
2022-08-08T07:25:21.647Z,23.60
2022-08-08T07:28:33.430Z,19.33
2022-08-08T07:31:36.878Z,29.45
2022-08-08T07:34:48.310Z,18.55
2022-08-08T07:38:09.748Z,20.65
2022-08-08T07:41:24.755Z,22.40
2022-08-08T07:44:40.570Z,21.50
2022-08-08T07:47:45.717Z,21.23
2022-08-08T07:50:54.183Z,25.58
2022-08-08T07:54:27.001Z,17.20
2022-08-08T07:57:43.301Z,26.73
2022-08-08T08:00:53.199Z,21.52
2022-08-08T08:04:03.846Z,27.15
2022-08-08T08:07:08.907Z,19.75
2022-08-08T08:10:13.164Z,19.35
2022-08-08T08:13:43.172Z,17.17
2022-08-08T08:17:03.151Z,29.50
2022-08-08T08:20:11.582Z,15.32
2022-08-08T08:23:13.852Z,24.48
2022-08-08T08:29:30.426Z,21.42
2022-08-08T08:32:36.468Z,28.13
2022-08-08T08:36:18.448Z,17.98
2022-08-08T08:39:02.636Z,19.63
2022-08-08T08:42:11.335Z,18.63
2022-08-08T08:45:23.103Z,21.55
2022-08-08T08:48:26.577Z,19.00
2022-08-08T08:51:35.572Z,25.33
2022-08-08T08:54:39.144Z,24.35
2022-08-08T08:57:48.287Z,17.48
2022-08-08T09:01:09.087Z,22.35
2022-08-08T09:04:31.305Z,21.90
2022-08-08T09:07:52.309Z,23.05
2022-08-08T09:11:07.870Z,21.92
2022-08-08T09:14:11.923Z,22.58
2022-08-08T09:17:18.851Z,19.35
2022-08-08T09:21:56.136Z,14.77
2022-08-08T09:24:05.657Z,40.03
2022-08-08T09:27:20.398Z,24.88
2022-08-08T09:30:26.947Z,23.67
2022-08-08T09:34:14.535Z,16.92
2022-08-08T09:37:39.675Z,18.55
2022-08-08T09:40:46.437Z,11.63
2022-08-08T09:44:06.952Z,16.92
2022-08-08T09:48:04.552Z,15.13
2022-08-08T09:50:43.939Z,17.02
2022-08-08T09:54:05.159Z,12.75
2022-08-08T09:57:17.180Z,14.18
2022-08-08T10:00:50.052Z,12.32
2022-08-08T10:04:02.408Z,15.43
2022-08-08T10:07:07.974Z,12.10
2022-08-08T10:10:13.061Z,15.18
2022-08-08T10:13:26.180Z,17.83
2022-08-08T10:16:40.548Z,13.30
2022-08-08T10:19:57.306Z,14.15
2022-08-08T10:23:02.408Z,18.55
2022-08-08T10:26:25.911Z,12.02
2022-08-08T10:33:03.233Z,16.38
2022-08-08T10:36:20.952Z,16.67
2022-08-08T10:39:31.534Z,11.00
2022-08-08T10:42:48.681Z,11.73
2022-08-08T10:45:57.139Z,15.32
2022-08-08T10:49:00.971Z,11.73
2022-08-08T10:52:03.420Z,14.70
2022-08-08T10:55:40.536Z,19.13
2022-08-08T10:58:47.406Z,12.25
2022-08-08T11:01:57.239Z,10.25
2022-08-08T11:05:05.320Z,6.95
2022-08-08T11:08:36.635Z,11.50
2022-08-08T11:12:06.382Z,10.40
2022-08-08T11:15:06.947Z,11.70
2022-08-08T11:18:10.100Z,8.48
2022-08-08T11:21:20.484Z,8.05
2022-08-08T11:24:25.399Z,11.90
2022-08-08T11:27:36.986Z,10.73
2022-08-08T11:30:50.470Z,12.18
2022-08-08T11:34:01.752Z,9.15
2022-08-08T11:37:15.457Z,8.00
2022-08-08T11:40:22.582Z,9.57
2022-08-08T11:43:39.446Z,9.25
2022-08-08T11:46:45.985Z,9.20
2022-08-08T11:49:58.166Z,7.32
2022-08-08T11:53:01.080Z,8.02
2022-08-08T11:56:22.610Z,8.18
2022-08-08T12:00:00.747Z,5.43
2022-08-08T12:02:55.729Z,7.70
2022-08-08T12:05:58.058Z,5.43
2022-08-08T12:12:28.650Z,7.47
2022-08-08T12:15:42.177Z,16.80
2022-08-08T12:18:51.820Z,13.23
2022-08-08T12:22:13.426Z,6.18
2022-08-08T12:25:30.923Z,9.43
2022-08-08T12:28:34.129Z,6.50
2022-08-08T12:31:39.075Z,7.22
2022-08-08T12:35:04.719Z,7.60
2022-08-08T12:38:16.602Z,6.40
2022-08-08T12:41:34.878Z,9.15
2022-08-08T12:44:48.315Z,8.80
2022-08-08T12:48:10.601Z,11.18
2022-08-08T12:51:25.966Z,10.82
2022-08-08T12:54:47.426Z,9.18
2022-08-08T12:57:56.574Z,13.05
2022-08-08T13:01:11.147Z,6.78
2022-08-08T13:04:25.781Z,14.35
2022-08-08T13:08:03.924Z,8.93
2022-08-08T13:11:05.507Z,11.27
2022-08-08T13:14:17.406Z,10.07
2022-08-08T13:18:08.184Z,7.20
2022-08-08T13:20:49.532Z,7.88
2022-08-08T13:23:52.051Z,7.85
2022-08-08T13:27:03.236Z,10.82
2022-08-08T13:30:07.468Z,8.20
2022-08-08T13:33:11.386Z,5.47
2022-08-08T13:36:25.950Z,5.63
2022-08-08T13:39:29.087Z,5.72
2022-08-08T13:42:32.624Z,5.50
2022-08-08T13:45:35.266Z,13.70
2022-08-08T13:49:11.719Z,5.90
2022-08-08T13:52:36.144Z,7.68
2022-08-08T13:55:36.296Z,8.73
2022-08-08T13:58:57.513Z,7.13
2022-08-08T14:02:07.274Z,7.78
2022-08-08T14:05:21.818Z,9.85
2022-08-08T14:08:30.253Z,11.38
2022-08-08T14:11:37.220Z,4.97
2022-08-08T14:14:42.788Z,9.43
2022-08-08T14:21:20.913Z,11.70
2022-08-08T14:24:34.817Z,5.82
2022-08-08T14:27:40.360Z,6.22
2022-08-08T14:30:47.703Z,5.88
2022-08-08T14:33:54.953Z,6.93
2022-08-08T14:36:57.249Z,5.35
2022-08-08T14:40:05.481Z,8.55
2022-08-08T14:43:22.200Z,7.47
2022-08-08T14:46:32.669Z,6.95
2022-08-08T14:49:37.804Z,6.15
2022-08-08T14:53:14.230Z,14.57
2022-08-08T14:56:17.569Z,9.55
2022-08-08T14:59:44.483Z,6.03
2022-08-08T15:03:01.477Z,8.80
2022-08-08T15:06:16.565Z,4.30
2022-08-08T15:09:19.630Z,5.78
2022-08-08T15:12:27.760Z,15.63
2022-08-08T15:16:03.010Z,5.95
2022-08-08T15:18:53.173Z,4.78
2022-08-08T15:21:55.352Z,6.13
2022-08-08T15:25:00.251Z,9.38
2022-08-08T15:28:05.073Z,4.57
2022-08-08T15:32:03.140Z,5.78
2022-08-08T15:34:47.843Z,7.60
2022-08-08T15:37:50.134Z,14.93
2022-08-08T15:40:52.296Z,7.25
2022-08-08T15:44:00.592Z,10.18
2022-08-08T15:47:04.269Z,6.53
2022-08-08T15:50:13.404Z,4.85
2022-08-08T15:53:23.896Z,8.07
2022-08-08T15:56:28.243Z,5.35
2022-08-08T16:00:06.511Z,9.05
2022-08-08T16:02:53.360Z,4.90
2022-08-08T16:06:02.037Z,5.57
2022-08-08T16:13:05.740Z,9.25
2022-08-08T16:13:09.377Z,12.52
2022-08-08T16:15:58.245Z,10.73
2022-08-08T16:19:02.208Z,20.85
2022-08-08T16:25:10.675Z,6.23
2022-08-08T16:28:22.925Z,8.77
2022-08-08T16:31:48.599Z,8.32
2022-08-08T16:34:51.770Z,7.60
2022-08-08T16:37:53.954Z,8.98
2022-08-08T16:41:00.181Z,6.90
2022-08-08T16:44:04.826Z,5.88
2022-08-08T16:47:18.256Z,5.38
2022-08-08T16:50:24.193Z,8.63
2022-08-08T16:55:06.470Z,7.68
2022-08-08T16:57:04.128Z,6.72
2022-08-08T17:00:12.551Z,8.63
2022-08-08T17:03:58.046Z,7.93
2022-08-08T17:06:51.263Z,7.25
2022-08-08T17:09:53.676Z,6.53
2022-08-08T17:12:56.237Z,7.45
2022-08-08T17:15:58.400Z,11.30
2022-08-08T17:19:00.845Z,10.32
2022-08-08T17:22:05.948Z,6.70
2022-08-08T17:25:16.856Z,12.82
2022-08-08T17:28:19.141Z,7.18
2022-08-08T17:31:45.319Z,10.60
2022-08-08T17:35:52.617Z,11.90
2022-08-08T17:38:15.098Z,10.30
2022-08-08T17:41:17.437Z,10.93
2022-08-08T17:44:27.023Z,13.43
2022-08-08T17:50:42.315Z,7.28
2022-08-08T17:53:46.471Z,17.33
2022-08-08T17:57:01.294Z,9.05
2022-08-08T18:03:22.781Z,12.32
2022-08-08T18:06:31.048Z,6.53
2022-08-08T18:09:37.972Z,10.30
2022-08-08T18:12:42.780Z,13.25
2022-08-08T18:15:46.725Z,9.07
2022-08-08T18:19:02.796Z,24.65
2022-08-08T18:22:06.104Z,11.88
2022-08-08T18:25:28.523Z,9.65
2022-08-08T18:28:54.122Z,17.85
2022-08-08T18:32:03.551Z,11.93
2022-08-08T18:35:09.878Z,22.90
2022-08-08T18:38:19.350Z,16.90
2022-08-08T18:41:51.036Z,12.73
2022-08-08T18:44:55.133Z,11.45
2022-08-08T18:47:58.274Z,15.93
2022-08-08T18:51:01.453Z,17.37
2022-08-08T18:54:13.658Z,16.23
2022-08-08T18:57:24.381Z,15.43
2022-08-08T19:00:26.638Z,21.60
2022-08-08T19:03:30.374Z,20.45
2022-08-08T19:06:52.483Z,17.33
2022-08-08T19:10:14.810Z,17.23
2022-08-08T19:13:21.412Z,14.15
2022-08-08T19:16:28.594Z,19.15
2022-08-08T19:19:34.174Z,16.88
2022-08-08T19:22:37.763Z,14.52
2022-08-08T19:26:02.422Z,15.30
2022-08-08T19:29:04.961Z,16.77
2022-08-08T19:32:12.689Z,15.32
2022-08-08T19:35:15.771Z,21.17
2022-08-08T19:38:22.572Z,15.13
2022-08-08T19:41:34.861Z,23.52
2022-08-08T19:44:42.851Z,14.07
2022-08-08T19:47:46.125Z,21.90
2022-08-08T19:50:50.574Z,17.48
2022-08-08T19:53:54.359Z,17.02
2022-08-08T19:59:58.801Z,18.13
2022-08-08T20:03:15.049Z,15.48
2022-08-08T20:06:24.616Z,17.45
2022-08-08T20:09:29.941Z,14.98
2022-08-08T20:12:35.750Z,23.08
2022-08-08T20:15:52.360Z,16.80
2022-08-08T20:19:01.508Z,20.17
2022-08-08T20:22:05.113Z,22.33
2022-08-08T20:25:24.613Z,24.60
2022-08-08T20:28:32.723Z,19.30
2022-08-08T20:32:08.177Z,19.30
2022-08-08T20:35:00.772Z,27.05
2022-08-08T20:38:03.940Z,17.30
2022-08-08T20:41:19.010Z,25.25
2022-08-08T20:44:21.750Z,19.55
2022-08-08T20:47:35.873Z,23.33
2022-08-08T20:50:39.106Z,22.88
2022-08-08T20:54:00.040Z,22.02
2022-08-08T20:57:05.689Z,19.42
2022-08-08T21:00:19.816Z,24.20
2022-08-08T21:03:21.952Z,20.13
2022-08-08T21:06:52.478Z,22.52
2022-08-08T21:09:48.604Z,22.10
2022-08-08T21:13:08.672Z,25.40
2022-08-08T21:16:20.701Z,27.73
2022-08-08T21:19:44.200Z,17.02
2022-08-08T21:22:48.622Z,18.00
2022-08-08T21:25:55.077Z,21.07
2022-08-08T21:29:01.073Z,23.48
2022-08-08T21:32:07.816Z,19.45
2022-08-08T21:36:13.587Z,25.40
2022-08-08T21:38:45.619Z,20.45
2022-08-08T21:41:53.693Z,23.10
2022-08-08T21:45:44.474Z,23.77
2022-08-08T21:48:35.146Z,23.60
2022-08-08T21:54:31.174Z,22.52
2022-08-08T21:55:23.896Z,25.45
2022-08-08T21:58:32.017Z,24.63
2022-08-08T22:01:40.539Z,26.10
2022-08-08T22:04:45.165Z,22.88
2022-08-08T22:07:49.028Z,22.35
2022-08-08T22:10:54.072Z,24.15
2022-08-08T22:13:56.352Z,28.77
2022-08-08T22:17:01.229Z,30.58
2022-08-08T22:20:11.502Z,29.80
2022-08-08T22:23:17.732Z,24.02
2022-08-08T22:26:29.011Z,26.70
2022-08-08T22:29:58.744Z,24.08
2022-08-08T22:32:55.000Z,25.90
2022-08-08T22:36:05.338Z,25.25
2022-08-08T22:39:18.946Z,26.65
2022-08-08T22:42:27.199Z,27.88
2022-08-08T22:45:29.872Z,30.25
2022-08-08T22:48:33.191Z,27.13
2022-08-08T22:51:45.950Z,25.02
2022-08-08T22:54:56.019Z,25.13
2022-08-08T22:58:07.417Z,30.42
2022-08-08T23:01:16.591Z,28.63
2022-08-08T23:04:33.620Z,23.17
2022-08-08T23:07:57.107Z,28.58
2022-08-08T23:11:05.924Z,31.55
2022-08-08T23:14:11.379Z,29.27
2022-08-08T23:17:14.474Z,25.52
2022-08-08T23:20:19.797Z,23.25
2022-08-08T23:23:23.000Z,34.97
2022-08-08T23:26:25.350Z,27.30
2022-08-08T23:29:33.512Z,30.27
2022-08-08T23:32:35.926Z,32.80
2022-08-08T23:35:58.844Z,28.13
2022-08-08T23:39:08.379Z,30.52
2022-08-08T23:42:10.649Z,29.83
2022-08-08T23:45:12.987Z,28.63
2022-08-08T23:49:00.923Z,25.80
2022-08-08T23:52:05.472Z,26.05
2022-08-08T23:55:07.162Z,25.15
2022-08-08T23:58:32.180Z,24.75
